HomeShort term forecast

Short term forecast

Graphical weather forecast for the next 48 hours for Montreal:
Short term forecast
This weather forecast is automatically refreshed every 3 hours.

Hourly Experimental Forecast for the next 48 hours ®

Overall summary: Partly cloudy until this evening.

 Date & Hour   Temp   Feel   Baro   Hum   Speed & Bearing   Wind Gust   Precip.%   Precip.   Visibility   Cloud cover   Conditions 
 21/10/2018 - 13:00  4.4°C  0.2°C  1013.8 hPa  46%  21.6 km/h   34.9 km/h  0%  --  16.1km  63%  Mostly Cloudy 
 21/10/2018 - 14:00  5.0°C  0.6°C  1013.7 hPa  44%  23.9 km/h   34.6 km/h  0%  --  16.1km  42%  Partly Cloudy 
 21/10/2018 - 15:00  5.0°C  0.5°C  1013.9 hPa  44%  25.1 km/h   35.2 km/h  0%  --  16.1km  66%  Mostly Cloudy 
 21/10/2018 - 16:00  4.7°C  0.2°C  1014.5 hPa  44%  25.0 km/h   36.9 km/h  0%  --  16.1km  61%  Mostly Cloudy 
 21/10/2018 - 17:00  4.4°C  -0.2°C  1015.1 hPa  45%  24.2 km/h   37.3 km/h  0%  --  16.1km  64%  Mostly Cloudy 
 21/10/2018 - 18:00  3.8°C  -0.7°C  1015.8 hPa  47%  21.9 km/h   36.9 km/h  7%  0.05 mm/h  16.1km  43%  Partly Cloudy 
 21/10/2018 - 19:00  3.1°C  -1.2°C  1016.3 hPa  50%  18.5 km/h   34.9 km/h  0%  --  16.1km  34%  Partly Cloudy 
 21/10/2018 - 20:00  2.6°C  -1.3°C  1017.0 hPa  52%  16.1 km/h   32.2 km/h  0%  --  16.1km  27%  Partly Cloudy 
 21/10/2018 - 21:00  2.2°C  -1.8°C  1017.4 hPa  55%  15.3 km/h   32.8 km/h  0%  --  16.1km  23%  Clear 
 21/10/2018 - 22:00  1.8°C  -2.2°C  1017.7 hPa  55%  15.3 km/h   32.6 km/h  0%  --  16.1km  9%  Clear 
 21/10/2018 - 23:00  1.5°C  -2.5°C  1018.1 hPa  56%  14.8 km/h   32.4 km/h  0%  --  16.1km  2%  Clear 
 22/10/2018 - 00:00  1.2°C  -2.7°C  1018.3 hPa  59%  13.6 km/h   31.3 km/h  3%  0.02 mm/h  16.1km  4%  Clear 
 22/10/2018 - 01:00  1.0°C  -2.8°C  1018.4 hPa  60%  13.1 km/h   31.4 km/h  3%  0.03 mm/h  16.1km  11%  Clear 
 22/10/2018 - 02:00  0.8°C  -3.2°C  1018.5 hPa  59%  13.4 km/h   28.8 km/h  0%  --  16.1km  17%  Clear 
 22/10/2018 - 03:00  0.4°C  -3.5°C  1018.8 hPa  61%  13.1 km/h   28.8 km/h  0%  --  16.1km  25%  Partly Cloudy 
 22/10/2018 - 04:00  0.1°C  -3.9°C  1019.0 hPa  63%  12.8 km/h   28.9 km/h  0%  --  16.1km  33%  Partly Cloudy 
 22/10/2018 - 05:00  -0.4°C  -4.3°C  1019.3 hPa  66%  12.5 km/h   28.3 km/h  0%  --  16.1km  36%  Partly Cloudy 
 22/10/2018 - 06:00  -1.1°C  -5.1°C  1019.6 hPa  70%  11.8 km/h   26.5 km/h  0%  --  16.1km  28%  Partly Cloudy 
 22/10/2018 - 07:00  -1.6°C  -5.5°C  1019.8 hPa  72%  11.2 km/h   24.0 km/h  0%  --  16.1km  14%  Clear 
 22/10/2018 - 08:00  -1.2°C  -4.9°C  1020.0 hPa  71%  10.6 km/h   21.8 km/h  0%  --  16.1km  8%  Clear 
 22/10/2018 - 09:00  0.3°C  -3.1°C  1020.0 hPa  65%  10.5 km/h   20.3 km/h  0%  --  16.1km  14%  Clear 
 22/10/2018 - 10:00  2.5°C  -0.4°C  1019.9 hPa  56%  10.7 km/h   19.2 km/h  0%  --  16.1km  26%  Partly Cloudy 
 22/10/2018 - 11:00  4.2°C  1.5°C  1019.8 hPa  52%  10.9 km/h   18.5 km/h  5%  0.01 mm/h  16.1km  38%  Partly Cloudy 
 22/10/2018 - 12:00  5.1°C  2.5°C  1019.4 hPa  52%  11.1 km/h   18.4 km/h  0%  --  16.1km  42%  Partly Cloudy 
 22/10/2018 - 13:00  5.4°C  2.9°C  1019.0 hPa  55%  11.1 km/h   18.6 km/h  0%  --  16.1km  48%  Partly Cloudy 
 22/10/2018 - 14:00  5.8°C  3.5°C  1018.7 hPa  57%  10.8 km/h   18.4 km/h  0%  --  16.1km  57%  Partly Cloudy 
 22/10/2018 - 15:00  6.4°C  4.3°C  1018.4 hPa  59%  9.8 km/h   17.2 km/h  8%  0.03 mm/h  16.1km  70%  Mostly Cloudy 
 22/10/2018 - 16:00  6.8°C  5.2°C  1018.2 hPa  62%  8.4 km/h   15.5 km/h  20%  0.15 mm/h  16.1km  85%  Mostly Cloudy 
 22/10/2018 - 17:00  7.1°C  5.7°C  1018.1 hPa  64%  7.5 km/h   14.0 km/h  27%  0.26 mm/h  16.1km  96%  Overcast 
 22/10/2018 - 18:00  6.8°C  5.4°C  1018.3 hPa  67%  7.5 km/h   12.2 km/h  30%  0.20 mm/h  16.1km  98%  Overcast 
 22/10/2018 - 19:00  6.2°C  4.7°C  1018.7 hPa  70%  7.7 km/h   10.3 km/h  23%  0.10 mm/h  16.1km  98%  Overcast 
 22/10/2018 - 20:00  6.1°C  4.5°C  1019.0 hPa  72%  7.9 km/h   9.2 km/h  17%  0.06 mm/h  16.1km  96%  Overcast 
 22/10/2018 - 21:00  6.1°C  4.3°C  1018.9 hPa  73%  8.4 km/h   10.6 km/h  15%  0.05 mm/h  16.1km  88%  Mostly Cloudy 
 22/10/2018 - 22:00  6.2°C  4.2°C  1018.8 hPa  75%  9.1 km/h   13.4 km/h  15%  0.05 mm/h  16.1km  78%  Mostly Cloudy 
 22/10/2018 - 23:00  6.1°C  4.1°C  1018.6 hPa  76%  9.6 km/h   15.3 km/h  15%  0.06 mm/h  16.1km  70%  Mostly Cloudy 
 23/10/2018 - 00:00  6.1°C  4.1°C  1018.3 hPa  78%  9.5 km/h   14.6 km/h  13%  0.05 mm/h  16.1km  69%  Mostly Cloudy 
 23/10/2018 - 01:00  6.1°C  4.2°C  1018.0 hPa  79%  9.1 km/h   12.7 km/h  10%  0.04 mm/h  16.1km  69%  Mostly Cloudy 
 23/10/2018 - 02:00  6.0°C  4.2°C  1017.7 hPa  79%  8.6 km/h   11.3 km/h  8%  0.02 mm/h  16.1km  70%  Mostly Cloudy 
 23/10/2018 - 03:00  5.7°C  4.0°C  1017.4 hPa  80%  7.9 km/h   10.8 km/h  6%  0.01 mm/h  16.1km  70%  Mostly Cloudy 
 23/10/2018 - 04:00  5.5°C  4.0°C  1017.2 hPa  81%  7.1 km/h   10.5 km/h  0%  --  16.1km  71%  Mostly Cloudy 
 23/10/2018 - 05:00  5.0°C  3.5°C  1016.9 hPa  83%  6.7 km/h   10.6 km/h  0%  --  16.1km  72%  Mostly Cloudy 
 23/10/2018 - 06:00  4.1°C  2.4°C  1016.9 hPa  87%  7.0 km/h   11.3 km/h  0%  --  16.1km  73%  Mostly Cloudy 
 23/10/2018 - 07:00  3.5°C  1.5°C  1016.9 hPa  90%  7.7 km/h   12.6 km/h  0%  --  16.1km  74%  Mostly Cloudy 
 23/10/2018 - 08:00  3.6°C  1.4°C  1016.8 hPa  89%  8.5 km/h   14.1 km/h  0%  --  16.1km  73%  Mostly Cloudy 
 23/10/2018 - 09:00  4.5°C  2.2°C  1016.5 hPa  86%  9.1 km/h   15.8 km/h  7%  0.01 mm/h  16.1km  69%  Mostly Cloudy 
 23/10/2018 - 10:00  5.7°C  3.6°C  1016.0 hPa  81%  9.8 km/h   17.7 km/h  16%  0.06 mm/h  16.1km  62%  Mostly Cloudy 
 23/10/2018 - 11:00  6.8°C  4.8°C  1015.5 hPa  78%  10.2 km/h   19.1 km/h  20%  0.10 mm/h  16.1km  57%  Partly Cloudy 
 23/10/2018 - 12:00  7.8°C  5.9°C  1014.9 hPa  74%  10.4 km/h   19.8 km/h  16%  0.09 mm/h  16.1km  53%  Partly Cloudy 
Test

 

Past weather and reports

Past weatherFind in this section the past weather conditions, weather archive, graphics, reports and statistics.

Current conditions

Current weather condition for MontrealAll you need to know about the current weather conditions for Montreal. Weather data is updated every 10 minutes.

Weather forecast

Current Montreal weatherSince 2004, celinium.com website has provided accurate weather forecast for Montreal's island.